sensor_id;sensor_type;location;lat;lon;timestamp;pressure;altitude;pressure_sealevel;temperature;humidity
54994;BME280;40891;47.242;8.648;2023-04-27T00:00:55;96373.78;;;11.73;86.19
54994;BME280;40891;47.242;8.648;2023-04-27T00:03:21;96359.72;;;11.77;83.18
54994;BME280;40891;47.242;8.648;2023-04-27T00:05:46;96360.47;;;11.68;84.39
54994;BME280;40891;47.242;8.648;2023-04-27T00:08:12;96361.50;;;11.61;85.85
54994;BME280;40891;47.242;8.648;2023-04-27T00:10:37;96355.75;;;11.56;85.81
54994;BME280;40891;47.242;8.648;2023-04-27T00:13:03;96351.59;;;11.60;86.34
54994;BME280;40891;47.242;8.648;2023-04-27T00:15:28;96355.47;;;11.63;87.22
54994;BME280;40891;47.242;8.648;2023-04-27T00:17:54;96349.59;;;11.61;86.92
54994;BME280;40891;47.242;8.648;2023-04-27T00:20:19;96356.22;;;11.54;86.13
54994;BME280;40891;47.242;8.648;2023-04-27T00:22:45;96352.97;;;11.56;86.88
54994;BME280;40891;47.242;8.648;2023-04-27T00:25:11;96343.56;;;11.62;88.23
54994;BME280;40891;47.242;8.648;2023-04-27T00:27:36;96342.06;;;11.71;89.77
54994;BME280;40891;47.242;8.648;2023-04-27T00:30:03;96350.53;;;11.67;86.83
54994;BME280;40891;47.242;8.648;2023-04-27T00:32:29;96350.38;;;11.61;87.75
54994;BME280;40891;47.242;8.648;2023-04-27T00:34:55;96348.94;;;11.57;87.14
54994;BME280;40891;47.242;8.648;2023-04-27T00:37:20;96345.72;;;11.58;85.95
54994;BME280;40891;47.242;8.648;2023-04-27T00:39:45;96350.50;;;11.58;86.41
54994;BME280;40891;47.242;8.648;2023-04-27T00:42:11;96346.50;;;11.59;87.34
54994;BME280;40891;47.242;8.648;2023-04-27T00:44:39;96342.16;;;11.58;89.14
54994;BME280;40891;47.242;8.648;2023-04-27T00:47:05;96339.38;;;11.58;89.16
54994;BME280;40891;47.242;8.648;2023-04-27T00:49:31;96347.25;;;11.59;89.03
54994;BME280;40891;47.242;8.648;2023-04-27T00:51:57;96350.03;;;11.59;88.57
54994;BME280;40891;47.242;8.648;2023-04-27T00:54:24;96342.94;;;11.58;89.75
54994;BME280;40891;47.242;8.648;2023-04-27T00:56:50;96340.00;;;11.62;89.39
54994;BME280;40891;47.242;8.648;2023-04-27T00:59:17;96341.84;;;11.65;88.27
54994;BME280;40891;47.242;8.648;2023-04-27T01:01:43;96350.50;;;11.58;88.57
54994;BME280;40891;47.242;8.648;2023-04-27T01:04:08;96345.84;;;11.55;88.64
54994;BME280;40891;47.242;8.648;2023-04-27T01:06:34;96349.56;;;11.52;88.34
54994;BME280;40891;47.242;8.648;2023-04-27T01:08:59;96352.50;;;11.48;89.24
54994;BME280;40891;47.242;8.648;2023-04-27T01:11:25;96351.41;;;11.46;89.57
54994;BME280;40891;47.242;8.648;2023-04-27T01:13:51;96352.31;;;11.43;89.76
54994;BME280;40891;47.242;8.648;2023-04-27T01:16:17;96352.66;;;11.45;90.04
54994;BME280;40891;47.242;8.648;2023-04-27T01:18:43;96357.59;;;11.50;90.82
54994;BME280;40891;47.242;8.648;2023-04-27T01:21:08;96357.94;;;11.52;90.71
54994;BME280;40891;47.242;8.648;2023-04-27T01:23:34;96360.38;;;11.50;88.51
54994;BME280;40891;47.242;8.648;2023-04-27T01:25:59;96358.22;;;11.45;90.06
54994;BME280;40891;47.242;8.648;2023-04-27T01:28:25;96350.16;;;11.47;91.03
54994;BME280;40891;47.242;8.648;2023-04-27T01:30:50;96358.06;;;11.48;93.01
54994;BME280;40891;47.242;8.648;2023-04-27T01:33:16;96350.66;;;11.54;92.93
54994;BME280;40891;47.242;8.648;2023-04-27T01:35:41;96353.88;;;11.53;93.58
54994;BME280;40891;47.242;8.648;2023-04-27T01:38:07;96355.75;;;11.47;93.43
54994;BME280;40891;47.242;8.648;2023-04-27T01:40:32;96358.66;;;11.43;93.96
54994;BME280;40891;47.242;8.648;2023-04-27T01:42:58;96363.72;;;11.36;96.09
54994;BME280;40891;47.242;8.648;2023-04-27T01:45:23;96356.63;;;11.35;95.85
54994;BME280;40891;47.242;8.648;2023-04-27T01:47:52;96362.38;;;11.40;96.69
54994;BME280;40891;47.242;8.648;2023-04-27T01:50:18;96364.06;;;11.38;95.55
54994;BME280;40891;47.242;8.648;2023-04-27T01:52:43;96365.25;;;11.28;96.25
54994;BME280;40891;47.242;8.648;2023-04-27T01:55:09;96363.25;;;11.28;98.08
54994;BME280;40891;47.242;8.648;2023-04-27T01:57:35;96371.91;;;11.30;99.07
54994;BME280;40891;47.242;8.648;2023-04-27T02:00:00;96371.44;;;11.32;99.40
54994;BME280;40891;47.242;8.648;2023-04-27T02:02:26;96379.97;;;11.28;97.53
54994;BME280;40891;47.242;8.648;2023-04-27T02:04:51;96378.06;;;11.25;96.95
54994;BME280;40891;47.242;8.648;2023-04-27T02:07:16;96383.78;;;11.22;95.27
54994;BME280;40891;47.242;8.648;2023-04-27T02:09:42;96388.06;;;11.14;96.92
54994;BME280;40891;47.242;8.648;2023-04-27T02:12:07;96402.06;;;11.01;97.64
54994;BME280;40891;47.242;8.648;2023-04-27T02:14:33;96402.22;;;10.98;99.66
54994;BME280;40891;47.242;8.648;2023-04-27T02:16:58;96394.44;;;10.92;99.74
54994;BME280;40891;47.242;8.648;2023-04-27T02:19:23;96396.91;;;10.90;98.12
54994;BME280;40891;47.242;8.648;2023-04-27T02:21:49;96399.50;;;10.85;100.00
54994;BME280;40891;47.242;8.648;2023-04-27T02:24:15;96403.00;;;10.76;99.87
54994;BME280;40891;47.242;8.648;2023-04-27T02:26:40;96397.88;;;10.75;100.00
54994;BME280;40891;47.242;8.648;2023-04-27T02:29:05;96393.34;;;10.68;100.00
54994;BME280;40891;47.242;8.648;2023-04-27T02:31:30;96395.81;;;10.66;100.00
54994;BME280;40891;47.242;8.648;2023-04-27T02:33:56;96394.53;;;10.58;100.00
54994;BME280;40891;47.242;8.648;2023-04-27T02:36:21;96396.78;;;10.51;100.00
54994;BME280;40891;47.242;8.648;2023-04-27T02:38:46;96390.25;;;10.45;100.00
54994;BME280;40891;47.242;8.648;2023-04-27T02:41:12;96384.63;;;10.36;100.00
54994;BME280;40891;47.242;8.648;2023-04-27T02:43:37;96388.09;;;10.27;100.00
54994;BME280;40891;47.242;8.648;2023-04-27T02:46:03;96379.81;;;10.14;100.00
54994;BME280;40891;47.242;8.648;2023-04-27T02:48:32;96375.69;;;10.06;100.00
54994;BME280;40891;47.242;8.648;2023-04-27T02:50:57;96391.25;;;10.04;100.00
54994;BME280;40891;47.242;8.648;2023-04-27T02:53:23;96390.94;;;10.02;100.00
54994;BME280;40891;47.242;8.648;2023-04-27T02:55:48;96391.41;;;10.00;100.00
54994;BME280;40891;47.242;8.648;2023-04-27T02:58:14;96398.63;;;9.98;100.00
54994;BME280;40891;47.242;8.648;2023-04-27T03:00:40;96393.72;;;10.02;100.00
54994;BME280;40891;47.242;8.648;2023-04-27T03:03:06;96393.50;;;9.96;100.00
54994;BME280;40891;47.242;8.648;2023-04-27T03:05:32;96393.16;;;9.94;100.00
54994;BME280;40891;47.242;8.648;2023-04-27T03:07:57;96402.28;;;9.95;100.00
54994;BME280;40891;47.242;8.648;2023-04-27T03:10:23;96400.41;;;9.92;100.00
54994;BME280;40891;47.242;8.648;2023-04-27T03:12:48;96401.97;;;9.93;100.00
54994;BME280;40891;47.242;8.648;2023-04-27T03:15:13;96394.53;;;9.90;100.00
54994;BME280;40891;47.242;8.648;2023-04-27T03:17:39;96398.28;;;9.96;100.00
54994;BME280;40891;47.242;8.648;2023-04-27T03:20:05;96384.06;;;9.94;100.00
54994;BME280;40891;47.242;8.648;2023-04-27T03:22:35;96390.63;;;10.00;100.00
54994;BME280;40891;47.242;8.648;2023-04-27T03:25:00;96384.41;;;9.96;100.00
54994;BME280;40891;47.242;8.648;2023-04-27T03:27:26;96391.50;;;9.97;100.00
54994;BME280;40891;47.242;8.648;2023-04-27T03:29:51;96391.50;;;9.97;100.00
54994;BME280;40891;47.242;8.648;2023-04-27T03:32:18;96391.81;;;9.99;100.00
54994;BME280;40891;47.242;8.648;2023-04-27T03:34:43;96393.84;;;9.98;100.00
54994;BME280;40891;47.242;8.648;2023-04-27T03:37:09;96400.94;;;9.99;100.00
54994;BME280;40891;47.242;8.648;2023-04-27T03:39:34;96399.59;;;10.04;100.00
54994;BME280;40891;47.242;8.648;2023-04-27T03:42:00;96389.72;;;10.03;100.00
54994;BME280;40891;47.242;8.648;2023-04-27T03:44:26;96380.38;;;10.09;100.00
54994;BME280;40891;47.242;8.648;2023-04-27T03:46:51;96379.91;;;10.11;100.00
54994;BME280;40891;47.242;8.648;2023-04-27T03:49:17;96391.38;;;10.13;100.00
54994;BME280;40891;47.242;8.648;2023-04-27T03:51:42;96390.94;;;10.14;100.00
54994;BME280;40891;47.242;8.648;2023-04-27T03:54:08;96391.66;;;10.27;100.00
54994;BME280;40891;47.242;8.648;2023-04-27T03:56:34;96403.19;;;10.39;100.00
54994;BME280;40891;47.242;8.648;2023-04-27T03:59:02;96399.06;;;10.43;100.00
54994;BME280;40891;47.242;8.648;2023-04-27T04:01:27;96398.44;;;10.48;100.00
54994;BME280;40891;47.242;8.648;2023-04-27T04:03:52;96397.44;;;10.55;100.00
54994;BME280;40891;47.242;8.648;2023-04-27T04:06:18;96399.06;;;10.43;100.00
54994;BME280;40891;47.242;8.648;2023-04-27T04:08:43;96402.09;;;10.36;100.00
54994;BME280;40891;47.242;8.648;2023-04-27T04:11:09;96390.28;;;10.32;100.00
54994;BME280;40891;47.242;8.648;2023-04-27T04:13:34;96393.66;;;10.27;100.00
54994;BME280;40891;47.242;8.648;2023-04-27T04:16:05;96389.91;;;10.21;100.00
54994;BME280;40891;47.242;8.648;2023-04-27T04:18:31;96403.34;;;10.22;100.00
54994;BME280;40891;47.242;8.648;2023-04-27T04:20:56;96412.13;;;10.21;100.00
54994;BME280;40891;47.242;8.648;2023-04-27T04:23:22;96413.03;;;10.18;100.00
54994;BME280;40891;47.242;8.648;2023-04-27T04:25:48;96400.38;;;10.17;100.00
54994;BME280;40891;47.242;8.648;2023-04-27T04:28:13;96409.69;;;10.10;100.00
54994;BME280;40891;47.242;8.648;2023-04-27T04:30:39;96404.91;;;10.11;100.00
54994;BME280;40891;47.242;8.648;2023-04-27T04:33:05;96412.44;;;10.10;100.00
54994;BME280;40891;47.242;8.648;2023-04-27T04:35:30;96407.59;;;10.14;100.00
54994;BME280;40891;47.242;8.648;2023-04-27T04:37:57;96399.44;;;10.20;100.00
54994;BME280;40891;47.242;8.648;2023-04-27T04:40:23;96407.75;;;10.33;100.00
54994;BME280;40891;47.242;8.648;2023-04-27T04:42:49;96402.97;;;10.33;100.00
54994;BME280;40891;47.242;8.648;2023-04-27T04:45:14;96401.09;;;10.30;100.00
54994;BME280;40891;47.242;8.648;2023-04-27T04:47:39;96405.69;;;10.24;100.00
54994;BME280;40891;47.242;8.648;2023-04-27T04:50:06;96407.13;;;10.29;100.00
54994;BME280;40891;47.242;8.648;2023-04-27T04:52:32;96401.31;;;10.36;100.00
54994;BME280;40891;47.242;8.648;2023-04-27T04:54:58;96401.16;;;10.39;100.00
54994;BME280;40891;47.242;8.648;2023-04-27T04:57:23;96400.84;;;10.37;100.00
54994;BME280;40891;47.242;8.648;2023-04-27T04:59:49;96406.88;;;10.36;100.00
54994;BME280;40891;47.242;8.648;2023-04-27T05:02:14;96403.94;;;10.39;100.00
54994;BME280;40891;47.242;8.648;2023-04-27T05:04:40;96408.53;;;10.33;100.00
54994;BME280;40891;47.242;8.648;2023-04-27T05:07:05;96402.19;;;10.33;100.00
54994;BME280;40891;47.242;8.648;2023-04-27T05:09:31;96402.09;;;10.36;100.00
54994;BME280;40891;47.242;8.648;2023-04-27T05:11:56;96396.28;;;10.43;100.00
54994;BME280;40891;47.242;8.648;2023-04-27T05:14:22;96396.03;;;10.50;100.00
54994;BME280;40891;47.242;8.648;2023-04-27T05:16:47;96394.34;;;10.53;100.00
54994;BME280;40891;47.242;8.648;2023-04-27T05:19:13;96391.75;;;10.58;100.00
54994;BME280;40891;47.242;8.648;2023-04-27T05:21:43;96400.41;;;10.60;100.00
54994;BME280;40891;47.242;8.648;2023-04-27T05:24:09;96395.63;;;10.61;100.00
54994;BME280;40891;47.242;8.648;2023-04-27T05:26:35;96396.72;;;10.63;100.00
54994;BME280;40891;47.242;8.648;2023-04-27T05:29:00;96396.59;;;10.67;100.00
54994;BME280;40891;47.242;8.648;2023-04-27T05:31:25;96396.19;;;10.77;100.00
54994;BME280;40891;47.242;8.648;2023-04-27T05:33:51;96400.59;;;10.87;100.00
54994;BME280;40891;47.242;8.648;2023-04-27T05:36:16;96407.91;;;10.94;100.00
54994;BME280;40891;47.242;8.648;2023-04-27T05:38:41;96408.41;;;11.02;100.00
54994;BME280;40891;47.242;8.648;2023-04-27T05:41:07;96399.22;;;11.14;100.00
54994;BME280;40891;47.242;8.648;2023-04-27T05:43:32;96398.19;;;11.29;100.00
54994;BME280;40891;47.242;8.648;2023-04-27T05:45:59;96405.84;;;11.47;100.00
54994;BME280;40891;47.242;8.648;2023-04-27T05:48:25;96403.72;;;11.60;100.00
54994;BME280;40891;47.242;8.648;2023-04-27T05:50:58;96395.63;;;11.84;100.00
54994;BME280;40891;47.242;8.648;2023-04-27T05:53:24;96412.41;;;12.02;99.28
54994;BME280;40891;47.242;8.648;2023-04-27T05:55:49;96409.94;;;12.04;98.95
54994;BME280;40891;47.242;8.648;2023-04-27T05:58:14;96419.69;;;12.17;97.59
54994;BME280;40891;47.242;8.648;2023-04-27T06:00:40;96411.94;;;12.30;96.05
54994;BME280;40891;47.242;8.648;2023-04-27T06:03:05;96416.44;;;12.19;96.55
54994;BME280;40891;47.242;8.648;2023-04-27T06:05:31;96424.66;;;12.32;95.22
54994;BME280;40891;47.242;8.648;2023-04-27T06:07:58;96422.78;;;12.19;94.84
54994;BME280;40891;47.242;8.648;2023-04-27T06:10:23;96422.00;;;12.10;94.68
54994;BME280;40891;47.242;8.648;2023-04-27T06:12:49;96424.00;;;12.00;96.50
54994;BME280;40891;47.242;8.648;2023-04-27T06:15:14;96423.72;;;12.16;95.31
54994;BME280;40891;47.242;8.648;2023-04-27T06:17:41;96429.63;;;12.37;93.25
54994;BME280;40891;47.242;8.648;2023-04-27T06:20:08;96426.38;;;12.38;93.10
54994;BME280;40891;47.242;8.648;2023-04-27T06:22:37;96423.44;;;12.42;92.96
54994;BME280;40891;47.242;8.648;2023-04-27T06:25:04;96426.69;;;12.40;91.73
54994;BME280;40891;47.242;8.648;2023-04-27T06:27:29;96422.34;;;12.30;93.17
54994;BME280;40891;47.242;8.648;2023-04-27T06:29:55;96420.31;;;12.21;91.86
54994;BME280;40891;47.242;8.648;2023-04-27T06:32:21;96424.66;;;12.22;93.64
54994;BME280;40891;47.242;8.648;2023-04-27T06:34:46;96434.56;;;12.23;93.14
54994;BME280;40891;47.242;8.648;2023-04-27T06:37:13;96432.41;;;12.27;92.39
54994;BME280;40891;47.242;8.648;2023-04-27T06:39:40;96434.25;;;12.30;91.65
54994;BME280;40891;47.242;8.648;2023-04-27T06:42:06;96443.72;;;12.33;90.57
54994;BME280;40891;47.242;8.648;2023-04-27T06:44:31;96434.59;;;12.42;89.02
54994;BME280;40891;47.242;8.648;2023-04-27T06:46:56;96436.47;;;12.54;87.42
54994;BME280;40891;47.242;8.648;2023-04-27T06:49:22;96442.19;;;12.59;85.27
54994;BME280;40891;47.242;8.648;2023-04-27T06:51:48;96442.97;;;12.69;86.23
54994;BME280;40891;47.242;8.648;2023-04-27T06:54:13;96453.69;;;12.70;86.55
54994;BME280;40891;47.242;8.648;2023-04-27T06:56:39;96439.72;;;12.70;84.31
54994;BME280;40891;47.242;8.648;2023-04-27T06:59:04;96440.81;;;12.82;84.20
54994;BME280;40891;47.242;8.648;2023-04-27T07:01:29;96445.00;;;12.77;85.08
54994;BME280;40891;47.242;8.648;2023-04-27T07:03:55;96447.00;;;12.86;84.80
54994;BME280;40891;47.242;8.648;2023-04-27T07:06:21;96451.34;;;12.87;85.90
54994;BME280;40891;47.242;8.648;2023-04-27T07:08:47;96446.66;;;13.02;84.58
54994;BME280;40891;47.242;8.648;2023-04-27T07:11:12;96453.47;;;13.28;83.32
54994;BME280;40891;47.242;8.648;2023-04-27T07:13:38;96452.25;;;13.29;82.44
54994;BME280;40891;47.242;8.648;2023-04-27T07:16:03;96460.41;;;13.42;83.01
54994;BME280;40891;47.242;8.648;2023-04-27T07:18:29;96462.53;;;13.56;82.01
54994;BME280;40891;47.242;8.648;2023-04-27T07:20:55;96462.69;;;13.61;81.23
54994;BME280;40891;47.242;8.648;2023-04-27T07:23:22;96468.88;;;13.65;79.73
54994;BME280;40891;47.242;8.648;2023-04-27T07:25:48;96467.06;;;13.53;80.30
54994;BME280;40891;47.242;8.648;2023-04-27T07:28:13;96465.53;;;13.52;79.34
54994;BME280;40891;47.242;8.648;2023-04-27T07:30:39;96460.63;;;13.71;79.21
54994;BME280;40891;47.242;8.648;2023-04-27T07:33:05;96462.41;;;13.92;77.74
54994;BME280;40891;47.242;8.648;2023-04-27T07:35:31;96458.59;;;13.81;78.95
54994;BME280;40891;47.242;8.648;2023-04-27T07:37:56;96455.84;;;14.04;78.58
54994;BME280;40891;47.242;8.648;2023-04-27T07:40:22;96449.13;;;14.11;78.87
54994;BME280;40891;47.242;8.648;2023-04-27T07:42:48;96448.22;;;14.38;77.30
54994;BME280;40891;47.242;8.648;2023-04-27T07:45:14;96451.84;;;14.53;73.49
54994;BME280;40891;47.242;8.648;2023-04-27T07:47:41;96454.94;;;14.55;74.96
54994;BME280;40891;47.242;8.648;2023-04-27T07:50:08;96448.06;;;14.79;72.07
54994;BME280;40891;47.242;8.648;2023-04-27T07:52:34;96440.22;;;15.07;70.41
54994;BME280;40891;47.242;8.648;2023-04-27T07:54:59;96434.78;;;15.04;71.79
54994;BME280;40891;47.242;8.648;2023-04-27T07:57:24;96439.94;;;15.34;71.65
54994;BME280;40891;47.242;8.648;2023-04-27T07:59:50;96432.41;;;15.55;71.03
54994;BME280;40891;47.242;8.648;2023-04-27T08:02:15;96437.41;;;15.80;68.07
54994;BME280;40891;47.242;8.648;2023-04-27T08:04:40;96432.00;;;15.77;68.84
54994;BME280;40891;47.242;8.648;2023-04-27T08:07:06;96437.97;;;15.84;66.32
54994;BME280;40891;47.242;8.648;2023-04-27T08:09:31;96428.47;;;15.96;65.82
54994;BME280;40891;47.242;8.648;2023-04-27T08:11:57;96429.19;;;16.11;66.79
54994;BME280;40891;47.242;8.648;2023-04-27T08:14:22;96426.28;;;16.20;64.65
54994;BME280;40891;47.242;8.648;2023-04-27T08:16:47;96424.59;;;16.28;63.35
54994;BME280;40891;47.242;8.648;2023-04-27T08:19:13;96423.53;;;16.61;64.15
54994;BME280;40891;47.242;8.648;2023-04-27T08:21:38;96416.50;;;16.71;64.03
54994;BME280;40891;47.242;8.648;2023-04-27T08:24:05;96414.47;;;16.71;63.11
54994;BME280;40891;47.242;8.648;2023-04-27T08:26:31;96411.78;;;16.82;60.38
54994;BME280;40891;47.242;8.648;2023-04-27T08:28:56;96413.13;;;16.87;60.26
54994;BME280;40891;47.242;8.648;2023-04-27T08:31:24;96413.88;;;16.87;60.11
54994;BME280;40891;47.242;8.648;2023-04-27T08:33:50;96413.69;;;16.91;59.34
54994;BME280;40891;47.242;8.648;2023-04-27T08:36:18;96410.34;;;16.67;61.40
54994;BME280;40891;47.242;8.648;2023-04-27T08:38:43;96413.34;;;16.83;61.44
54994;BME280;40891;47.242;8.648;2023-04-27T08:41:08;96411.81;;;17.08;60.16
54994;BME280;40891;47.242;8.648;2023-04-27T08:43:34;96416.50;;;17.17;59.20
54994;BME280;40891;47.242;8.648;2023-04-27T08:46:00;96401.06;;;17.32;57.75
54994;BME280;40891;47.242;8.648;2023-04-27T08:48:25;96408.91;;;17.48;56.40
54994;BME280;40891;47.242;8.648;2023-04-27T08:50:51;96406.84;;;17.49;56.54
54994;BME280;40891;47.242;8.648;2023-04-27T08:53:21;96404.19;;;17.40;57.52
54994;BME280;40891;47.242;8.648;2023-04-27T08:55:48;96404.78;;;17.49;57.32
54994;BME280;40891;47.242;8.648;2023-04-27T08:58:14;96414.56;;;17.54;58.41
54994;BME280;40891;47.242;8.648;2023-04-27T09:00:42;96411.63;;;17.68;56.50
54994;BME280;40891;47.242;8.648;2023-04-27T09:03:23;96403.84;;;17.89;56.04
54994;BME280;40891;47.242;8.648;2023-04-27T09:05:49;96399.25;;;17.86;56.95
54994;BME280;40891;47.242;8.648;2023-04-27T09:08:15;96403.25;;;17.74;55.26
54994;BME280;40891;47.242;8.648;2023-04-27T09:10:49;96400.28;;;17.89;56.23
54994;BME280;40891;47.242;8.648;2023-04-27T09:13:15;96399.63;;;18.05;55.53
54994;BME280;40891;47.242;8.648;2023-04-27T09:15:45;96396.88;;;18.16;55.56
54994;BME280;40891;47.242;8.648;2023-04-27T09:18:21;96400.38;;;18.00;51.50
54994;BME280;40891;47.242;8.648;2023-04-27T09:20:48;96401.19;;;17.75;52.14
54994;BME280;40891;47.242;8.648;2023-04-27T09:23:31;96392.44;;;18.04;54.35
54994;BME280;40891;47.242;8.648;2023-04-27T09:26:05;96399.69;;;18.58;52.78
54994;BME280;40891;47.242;8.648;2023-04-27T09:28:37;96391.66;;;19.05;49.14
54994;BME280;40891;47.242;8.648;2023-04-27T09:31:03;96395.59;;;19.57;51.05
54994;BME280;40891;47.242;8.648;2023-04-27T09:33:53;96392.78;;;19.62;48.25
54994;BME280;40891;47.242;8.648;2023-04-27T09:36:19;96381.19;;;20.27;47.18
54994;BME280;40891;47.242;8.648;2023-04-27T09:38:45;96381.16;;;21.01;45.00
54994;BME280;40891;47.242;8.648;2023-04-27T09:41:11;96375.47;;;21.07;43.58
54994;BME280;40891;47.242;8.648;2023-04-27T09:43:37;96374.50;;;21.39;42.66
54994;BME280;40891;47.242;8.648;2023-04-27T09:46:04;96372.22;;;21.32;44.26
54994;BME280;40891;47.242;8.648;2023-04-27T09:48:30;96378.38;;;21.36;40.96
54994;BME280;40891;47.242;8.648;2023-04-27T09:50:56;96366.75;;;21.45;42.43
54994;BME280;40891;47.242;8.648;2023-04-27T09:53:31;96372.41;;;21.45;42.53
54994;BME280;40891;47.242;8.648;2023-04-27T09:59:22;96363.13;;;22.10;39.72
54994;BME280;40891;47.242;8.648;2023-04-27T10:02:01;96358.75;;;22.57;39.27
54994;BME280;40891;47.242;8.648;2023-04-27T10:05:07;96358.91;;;22.65;38.43
54994;BME280;40891;47.242;8.648;2023-04-27T10:07:38;96362.25;;;22.87;39.74
54994;BME280;40891;47.242;8.648;2023-04-27T10:10:15;96356.50;;;23.30;38.67
54994;BME280;40891;47.242;8.648;2023-04-27T10:12:54;96356.16;;;23.52;37.59
54994;BME280;40891;47.242;8.648;2023-04-27T10:15:25;96355.47;;;23.78;36.36
54994;BME280;40891;47.242;8.648;2023-04-27T10:17:51;96354.09;;;23.85;36.71
54994;BME280;40891;47.242;8.648;2023-04-27T10:20:30;96348.13;;;24.01;37.75
54994;BME280;40891;47.242;8.648;2023-04-27T10:22:57;96353.03;;;24.01;38.21
54994;BME280;40891;47.242;8.648;2023-04-27T10:25:27;96356.03;;;23.77;39.65
54994;BME280;40891;47.242;8.648;2023-04-27T10:30:22;96353.19;;;24.08;39.46
54994;BME280;40891;47.242;8.648;2023-04-27T10:32:56;96360.09;;;24.13;37.60
54994;BME280;40891;47.242;8.648;2023-04-27T10:35:32;96359.44;;;23.88;38.39
54994;BME280;40891;47.242;8.648;2023-04-27T10:38:16;96350.72;;;23.86;37.76
54994;BME280;40891;47.242;8.648;2023-04-27T10:40:54;96352.28;;;23.68;35.89
54994;BME280;40891;47.242;8.648;2023-04-27T10:43:24;96346.22;;;24.22;38.08
54994;BME280;40891;47.242;8.648;2023-04-27T10:45:51;96334.94;;;24.95;35.16
54994;BME280;40891;47.242;8.648;2023-04-27T10:48:16;96332.41;;;25.39;36.03
54994;BME280;40891;47.242;8.648;2023-04-27T10:50:42;96335.06;;;25.24;35.48
54994;BME280;40891;47.242;8.648;2023-04-27T10:53:12;96325.69;;;25.49;36.28
54994;BME280;40891;47.242;8.648;2023-04-27T10:55:43;96326.59;;;26.06;33.67
54994;BME280;40891;47.242;8.648;2023-04-27T10:58:09;96318.44;;;27.46;33.14
54994;BME280;40891;47.242;8.648;2023-04-27T11:00:37;96317.94;;;28.38;32.14
54994;BME280;40891;47.242;8.648;2023-04-27T11:03:20;96320.59;;;29.53;29.36
54994;BME280;40891;47.242;8.648;2023-04-27T11:05:47;96318.38;;;28.97;28.57
54994;BME280;40891;47.242;8.648;2023-04-27T11:08:17;96323.16;;;28.87;29.21
54994;BME280;40891;47.242;8.648;2023-04-27T11:10:46;96318.66;;;29.56;29.25
54994;BME280;40891;47.242;8.648;2023-04-27T11:13:18;96326.31;;;27.91;29.26
54994;BME280;40891;47.242;8.648;2023-04-27T11:15:56;96327.56;;;28.88;30.54
54994;BME280;40891;47.242;8.648;2023-04-27T11:18:28;96318.72;;;29.01;29.68
54994;BME280;40891;47.242;8.648;2023-04-27T11:21:05;96312.34;;;29.90;25.73
54994;BME280;40891;47.242;8.648;2023-04-27T11:23:34;96309.53;;;31.78;25.25
54994;BME280;40891;47.242;8.648;2023-04-27T11:29:02;96305.94;;;33.36;23.48
54994;BME280;40891;47.242;8.648;2023-04-27T11:31:52;96304.56;;;34.06;21.77
54994;BME280;40891;47.242;8.648;2023-04-27T11:34:22;96305.94;;;33.96;23.52
54994;BME280;40891;47.242;8.648;2023-04-27T11:36:59;96302.16;;;33.53;22.99
54994;BME280;40891;47.242;8.648;2023-04-27T11:39:27;96312.28;;;32.12;24.00
54994;BME280;40891;47.242;8.648;2023-04-27T11:41:53;96317.31;;;30.39;25.70
54994;BME280;40891;47.242;8.648;2023-04-27T11:44:24;96317.31;;;30.39;26.98
54994;BME280;40891;47.242;8.648;2023-04-27T11:46:50;96311.22;;;31.81;25.56
54994;BME280;40891;47.242;8.648;2023-04-27T11:49:18;96302.16;;;32.31;23.21
54994;BME280;40891;47.242;8.648;2023-04-27T11:51:44;96318.84;;;30.40;26.29
54994;BME280;40891;47.242;8.648;2023-04-27T11:54:10;96310.66;;;29.87;25.00
54994;BME280;40891;47.242;8.648;2023-04-27T11:56:40;96304.09;;;30.60;26.24
54994;BME280;40891;47.242;8.648;2023-04-27T11:59:17;96302.28;;;30.89;25.44
54994;BME280;40891;47.242;8.648;2023-04-27T12:01:43;96307.47;;;29.03;27.51
54994;BME280;40891;47.242;8.648;2023-04-27T12:04:09;96312.25;;;28.15;28.32
54994;BME280;40891;47.242;8.648;2023-04-27T12:06:34;96310.75;;;27.26;29.95
54994;BME280;40891;47.242;8.648;2023-04-27T12:09:00;96311.25;;;27.75;30.36
54994;BME280;40891;47.242;8.648;2023-04-27T12:11:26;96306.09;;;27.74;28.98
54994;BME280;40891;47.242;8.648;2023-04-27T12:13:52;96309.94;;;28.29;28.24
54994;BME280;40891;47.242;8.648;2023-04-27T12:16:18;96303.63;;;27.93;28.88
54994;BME280;40891;47.242;8.648;2023-04-27T12:18:45;96295.16;;;30.14;27.42
54994;BME280;40891;47.242;8.648;2023-04-27T12:21:11;96290.91;;;32.71;23.57
54994;BME280;40891;47.242;8.648;2023-04-27T12:23:37;96287.56;;;32.65;22.29
54994;BME280;40891;47.242;8.648;2023-04-27T12:26:02;96281.22;;;32.95;22.56
54994;BME280;40891;47.242;8.648;2023-04-27T12:28:28;96280.44;;;32.66;21.68
54994;BME280;40891;47.242;8.648;2023-04-27T12:30:53;96274.63;;;31.91;23.18
54994;BME280;40891;47.242;8.648;2023-04-27T12:33:19;96279.84;;;32.77;22.64
54994;BME280;40891;47.242;8.648;2023-04-27T12:35:44;96277.69;;;33.94;21.26
54994;BME280;40891;47.242;8.648;2023-04-27T12:38:09;96270.53;;;34.36;19.94
54994;BME280;40891;47.242;8.648;2023-04-27T12:40:35;96265.84;;;34.31;19.49
54994;BME280;40891;47.242;8.648;2023-04-27T12:43:00;96265.09;;;36.03;18.35
54994;BME280;40891;47.242;8.648;2023-04-27T12:45:26;96268.84;;;34.63;18.71
54994;BME280;40891;47.242;8.648;2023-04-27T12:47:51;96267.53;;;35.63;19.01
54994;BME280;40891;47.242;8.648;2023-04-27T12:50:20;96268.09;;;36.05;18.13
54994;BME280;40891;47.242;8.648;2023-04-27T12:52:46;96267.59;;;35.09;21.07
54994;BME280;40891;47.242;8.648;2023-04-27T12:55:12;96265.06;;;34.82;18.95
54994;BME280;40891;47.242;8.648;2023-04-27T12:57:38;96259.94;;;34.50;19.37
54994;BME280;40891;47.242;8.648;2023-04-27T13:00:04;96268.88;;;33.62;21.65
54994;BME280;40891;47.242;8.648;2023-04-27T13:02:34;96270.81;;;31.09;22.75
54994;BME280;40891;47.242;8.648;2023-04-27T13:04:59;96266.44;;;30.90;23.32